Manila, Kentucky
Current Conditions -  °F | °C
As of 8:15 PM on Friday 28 Nov 2014 (Local Time) from KSJS Reporting Station
Clear Clear  
Wind Chill: 31°   Ceiling: Unl
Heat Index: 31°   Visibility: 10mi
Dew Point: 19°   Wind: 3mph
Humidity: 61%   Direction: 150°SSE
Pressure: 30.2"   Gusts: NA
Location:  37.8399°N, 82.9411°W
Report Text: KSJS 290115Z AUTO 15003KT 10SM CLR 00/M07 A3020 RMK AO2 T10031070
Loading
Personal Weather Stations






























Interactive Weather Map New forecast layout! Learn more

10-Day Weather Forecast

Advertisements
Track Severe Weather on mobile